Time;durP1;ratioP1;P1;durP2;ratioP2;P2;SDS_P1;SDS_P2;PMS_P1;PMS_P2;Temp;Humidity;BMP_temperature;BMP_pressure;BME280_temperature;BME280_humidity;BME280_pressure;Samples;Min_cycle;Max_cycle;Signal;HPM_P1;HPM_P2
2022/09/22 00:01:04;;;;;;;5.07;3.47;;;11.60;99.90;;;;;;5024230;28;20204;-83
2022/09/22 00:03:32;;;;;;;6.07;4.00;;;11.60;99.90;;;;;;5028212;28;20286;-83
2022/09/22 00:05:59;;;;;;;6.57;3.90;;;11.50;99.90;;;;;;5021202;28;20203;-83
2022/09/22 00:08:25;;;;;;;7.23;4.70;;;11.50;99.90;;;;;;5026642;28;20205;-83
2022/09/22 00:10:59;;;;;;;4.97;3.60;;;11.40;99.90;;;;;;5044563;28;20215;-84
2022/09/22 00:13:25;;;;;;;4.97;3.60;;;11.40;99.90;;;;;;5025519;28;20168;-82
2022/09/22 00:15:50;;;;;;;8.50;6.47;;;11.40;99.90;;;;;;5041941;28;20207;-83
2022/09/22 00:18:16;;;;;;;6.03;4.57;;;11.50;99.90;;;;;;5028452;28;20232;-83
2022/09/22 00:20:41;;;;;;;6.40;4.57;;;11.40;99.90;;;;;;5044045;28;20206;-81
2022/09/22 00:23:07;;;;;;;6.63;5.07;;;11.40;99.90;;;;;;5019780;28;20285;-83
2022/09/22 00:25:32;;;;;;;7.53;3.93;;;11.40;99.90;;;;;;5042720;28;20182;-83
2022/09/22 00:27:58;;;;;;;4.97;3.67;;;11.30;99.90;;;;;;5043524;28;20240;-83
2022/09/22 00:30:23;;;;;;;4.03;3.13;;;11.20;99.90;;;;;;5040304;28;20232;-83
2022/09/22 00:32:49;;;;;;;5.63;3.57;;;11.20;99.90;;;;;;5040998;28;20257;-83
2022/09/22 00:35:14;;;;;;;6.77;4.13;;;11.10;99.90;;;;;;5040442;28;20201;-83
2022/09/22 00:37:40;;;;;;;5.80;3.83;;;11.10;99.90;;;;;;5043822;28;20203;-83
2022/09/22 00:40:06;;;;;;;5.10;4.13;;;11.10;99.90;;;;;;5015450;28;20231;-84
2022/09/22 00:42:31;;;;;;;8.90;4.23;;;11.00;99.90;;;;;;5042420;28;20218;-83
2022/09/22 00:44:57;;;;;;;6.77;4.20;;;11.00;99.90;;;;;;5019186;28;20211;-83
2022/09/22 00:47:29;;;;;;;5.33;4.03;;;11.00;99.90;;;;;;5021702;28;20212;-83
2022/09/22 00:50:09;;;;;;;6.60;4.10;;;11.00;99.90;;;;;;5023407;28;20199;-84
2022/09/22 00:52:41;;;;;;;5.40;3.80;;;10.90;99.90;;;;;;5023005;28;20178;-84
2022/09/22 00:55:14;;;;;;;7.23;4.53;;;10.90;99.90;;;;;;5020674;28;20211;-84
2022/09/22 00:57:41;;;;;;;5.60;4.10;;;10.90;99.90;;;;;;5037841;28;20199;-84
2022/09/22 01:00:09;;;;;;;5.33;4.50;;;10.90;99.90;;;;;;5033669;28;20208;-84
2022/09/22 01:02:35;;;;;;;4.73;3.80;;;10.80;99.90;;;;;;5042443;28;20724;-84
2022/09/22 01:05:00;;;;;;;6.73;4.67;;;10.80;99.90;;;;;;5018403;28;20229;-84
2022/09/22 01:07:28;;;;;;;6.67;4.10;;;10.80;99.90;;;;;;5037343;28;20201;-84
2022/09/22 01:09:54;;;;;;;7.23;4.67;;;10.80;99.90;;;;;;5040631;28;20701;-83
2022/09/22 01:12:22;;;;;;;5.40;3.67;;;10.80;99.90;;;;;;5023320;28;20200;-83
2022/09/22 01:15:32;;;;;;;6.20;3.73;;;10.80;99.90;;;;;;5016163;28;20219;-81
2022/09/22 01:18:09;;;;;;;4.20;3.73;;;10.70;99.90;;;;;;4949244;28;20206;-81
2022/09/22 01:21:12;;;;;;;5.63;3.77;;;10.70;99.90;;;;;;4953034;28;20203;-82
2022/09/22 01:23:59;;;;;;;6.77;3.53;;;10.70;99.90;;;;;;5024921;28;20202;-82
2022/09/22 01:26:41;;;;;;;3.60;3.17;;;10.70;99.90;;;;;;5048167;28;20200;-83
2022/09/22 01:29:24;;;;;;;7.10;3.77;;;10.60;99.90;;;;;;5018255;28;20220;-82
2022/09/22 01:31:56;;;;;;;4.73;3.43;;;10.60;99.90;;;;;;5041551;28;20197;-82
2022/09/22 01:34:27;;;;;;;5.03;3.60;;;10.50;99.90;;;;;;5030806;28;20223;-82
2022/09/22 01:37:22;;;;;;;7.40;4.03;;;10.50;99.90;;;;;;5040350;28;20212;-84
2022/09/22 01:39:56;;;;;;;5.33;3.77;;;10.50;99.90;;;;;;5027634;28;20257;-82
2022/09/22 01:42:45;;;;;;;3.93;3.20;;;10.40;99.90;;;;;;5037390;28;20250;-82
2022/09/22 01:45:16;;;;;;;6.80;3.77;;;10.40;99.90;;;;;;5025672;28;20219;-81
2022/09/22 01:47:49;;;;;;;6.33;3.73;;;10.40;99.90;;;;;;5042568;28;20212;-80
2022/09/22 01:50:22;;;;;;;5.37;3.60;;;10.40;99.90;;;;;;5027915;28;20247;-82
2022/09/22 01:52:51;;;;;;;4.73;3.40;;;10.40;99.90;;;;;;5045106;28;20234;-84
2022/09/22 01:55:31;;;;;;;4.40;3.40;;;10.40;99.90;;;;;;5025446;28;20262;-82
2022/09/22 01:58:02;;;;;;;4.53;2.93;;;10.30;99.90;;;;;;5023598;28;20215;-83
2022/09/22 02:00:28;;;;;;;4.73;2.97;;;10.30;99.90;;;;;;5048674;28;20226;-81
2022/09/22 02:03:07;;;;;;;6.23;3.17;;;10.30;99.90;;;;;;5047531;28;20204;-82
2022/09/22 02:05:38;;;;;;;4.37;3.00;;;10.30;99.90;;;;;;5029433;28;20220;-83
2022/09/22 02:08:12;;;;;;;5.80;3.60;;;10.30;99.90;;;;;;5040787;28;20283;-82
2022/09/22 02:10:44;;;;;;;5.73;2.93;;;10.20;99.90;;;;;;5045155;28;20199;-82
2022/09/22 02:13:09;;;;;;;5.10;3.73;;;10.20;99.90;;;;;;5027439;28;20267;-82
2022/09/22 02:18:26;;;;;;;5.57;3.80;;;10.10;99.90;;;;;;5041519;28;20227;-83
2022/09/22 02:20:52;;;;;;;8.23;4.60;;;10.10;99.90;;;;;;5044151;28;20213;-83
2022/09/22 02:23:18;;;;;;;4.50;3.30;;;10.10;99.90;;;;;;5034664;28;20209;-82
2022/09/22 02:25:44;;;;;;;4.90;3.13;;;10.10;99.90;;;;;;5023488;28;20168;-85
2022/09/22 02:28:15;;;;;;;6.10;4.20;;;10.10;99.90;;;;;;5032954;28;20632;-83
2022/09/22 02:30:42;;;;;;;3.70;2.90;;;10.00;99.90;;;;;;5022947;28;20668;-83
2022/09/22 02:33:09;;;;;;;4.53;3.37;;;10.00;99.90;;;;;;5034732;28;20207;-83
2022/09/22 02:35:38;;;;;;;4.50;3.47;;;10.00;99.90;;;;;;5023419;28;20207;-83
2022/09/22 02:38:26;;;;;;;5.97;3.60;;;10.00;99.90;;;;;;5025383;28;20403;-82
2022/09/22 02:41:06;;;;;;;6.03;3.60;;;10.00;99.90;;;;;;5030238;28;20188;-80
2022/09/22 02:44:03;;;;;;;5.80;4.23;;;10.00;99.90;;;;;;5042575;28;20278;-81
2022/09/22 02:46:44;;;;;;;4.33;3.20;;;9.90;99.90;;;;;;5044557;28;20859;-81
2022/09/22 02:49:14;;;;;;;8.10;3.30;;;9.90;99.90;;;;;;5032877;28;20296;-81
2022/09/22 02:51:41;;;;;;;4.60;3.53;;;9.90;99.90;;;;;;5038549;28;20303;-81
2022/09/22 02:54:07;;;;;;;5.07;3.27;;;9.80;99.90;;;;;;5017784;28;20204;-82
2022/09/22 02:56:32;;;;;;;4.57;3.10;;;9.80;99.90;;;;;;5016303;28;20200;-81
2022/09/22 02:58:58;;;;;;;4.83;3.67;;;9.80;99.90;;;;;;5026571;28;20544;-81
2022/09/22 03:01:24;;;;;;;3.77;3.03;;;9.70;99.90;;;;;;5045270;28;20572;-81
2022/09/22 03:03:49;;;;;;;6.73;4.83;;;9.80;99.90;;;;;;5042220;28;20200;-81
2022/09/22 03:06:15;;;;;;;4.93;3.77;;;9.80;99.90;;;;;;5041885;28;20200;-81
2022/09/22 03:08:40;;;;;;;4.90;3.40;;;9.70;99.90;;;;;;5045400;28;20203;-82
2022/09/22 03:11:06;;;;;;;6.00;4.03;;;9.80;99.90;;;;;;5023697;28;20216;-81
2022/09/22 03:13:31;;;;;;;5.13;3.20;;;9.70;99.90;;;;;;5043406;28;20172;-82
2022/09/22 03:15:57;;;;;;;4.33;3.43;;;9.70;99.90;;;;;;5047422;28;20199;-81
2022/09/22 03:18:22;;;;;;;5.20;2.93;;;9.70;99.90;;;;;;5044041;28;20272;-81
2022/09/22 03:20:48;;;;;;;5.10;2.97;;;9.70;99.90;;;;;;5023833;28;20743;-81
2022/09/22 03:23:14;;;;;;;5.90;3.20;;;9.60;99.90;;;;;;5041264;28;20231;-82
2022/09/22 03:25:39;;;;;;;3.90;3.20;;;9.60;99.90;;;;;;5026004;28;20176;-81
2022/09/22 03:28:05;;;;;;;3.80;3.33;;;9.60;99.90;;;;;;5031051;28;20215;-83
2022/09/22 03:30:30;;;;;;;5.23;3.40;;;9.60;99.90;;;;;;5026935;28;20207;-83
2022/09/22 03:32:56;;;;;;;5.30;3.60;;;9.60;99.90;;;;;;5044030;28;20243;-83
2022/09/22 03:35:21;;;;;;;6.60;3.90;;;9.60;99.90;;;;;;5046550;28;20228;-83
2022/09/22 03:37:47;;;;;;;6.03;3.90;;;9.50;99.90;;;;;;5030714;28;20665;-82
2022/09/22 03:40:13;;;;;;;5.63;2.83;;;9.60;99.90;;;;;;5027197;28;20176;-82
2022/09/22 03:42:38;;;;;;;4.97;3.20;;;9.50;99.90;;;;;;5028762;28;20204;-82
2022/09/22 03:45:04;;;;;;;5.73;3.37;;;9.50;99.90;;;;;;5049069;28;20208;-83
2022/09/22 03:47:30;;;;;;;3.30;2.60;;;9.50;99.90;;;;;;5028836;28;20861;-82
2022/09/22 03:49:56;;;;;;;3.70;3.20;;;9.50;99.90;;;;;;5048066;28;20257;-82
2022/09/22 03:52:22;;;;;;;5.83;3.73;;;9.50;99.90;;;;;;5030017;28;20586;-83
2022/09/22 03:54:47;;;;;;;4.93;3.07;;;9.50;99.90;;;;;;5027738;28;20212;-83
2022/09/22 03:57:13;;;;;;;4.07;3.43;;;9.50;99.90;;;;;;5040673;28;20212;-84
2022/09/22 03:59:38;;;;;;;4.73;3.07;;;9.50;99.90;;;;;;5047739;28;20212;-83
2022/09/22 04:02:04;;;;;;;5.77;3.47;;;9.50;99.90;;;;;;5029911;28;20214;-83
2022/09/22 04:04:30;;;;;;;4.67;3.07;;;9.40;99.90;;;;;;5045098;28;20535;-83
2022/09/22 04:06:56;;;;;;;7.77;3.40;;;9.40;99.90;;;;;;5046130;28;20269;-83
2022/09/22 04:09:21;;;;;;;5.50;3.50;;;9.40;99.90;;;;;;5043184;28;20227;-82
2022/09/22 04:11:47;;;;;;;4.80;3.13;;;9.40;99.90;;;;;;5028425;28;20211;-83
2022/09/22 04:14:13;;;;;;;7.67;4.03;;;9.40;99.90;;;;;;5030691;28;20220;-83
2022/09/22 04:16:41;;;;;;;4.60;3.30;;;9.40;99.90;;;;;;5029486;28;20168;-83
2022/09/22 04:19:09;;;;;;;4.20;3.00;;;9.40;99.90;;;;;;5032138;28;20239;-83
2022/09/22 04:21:35;;;;;;;3.37;2.97;;;9.40;99.90;;;;;;5043454;28;20231;-83
2022/09/22 04:24:01;;;;;;;4.87;3.33;;;9.30;99.90;;;;;;5026996;28;20587;-83
2022/09/22 04:26:26;;;;;;;4.07;3.13;;;9.30;99.90;;;;;;5028961;28;20196;-82
2022/09/22 04:28:52;;;;;;;4.37;3.20;;;9.30;99.90;;;;;;5026511;28;20531;-84
2022/09/22 04:31:18;;;;;;;6.10;3.60;;;9.30;99.90;;;;;;5026083;28;20286;-82
2022/09/22 04:33:44;;;;;;;5.00;3.43;;;9.20;99.90;;;;;;5030004;28;20206;-83
2022/09/22 04:36:09;;;;;;;6.80;3.30;;;9.20;99.90;;;;;;5045693;28;20200;-83
2022/09/22 04:38:35;;;;;;;4.60;3.40;;;9.20;99.90;;;;;;5041785;28;20283;-83
2022/09/22 04:41:01;;;;;;;5.10;3.43;;;9.20;99.90;;;;;;5042789;28;20182;-82
2022/09/22 04:43:26;;;;;;;5.57;3.53;;;9.20;99.90;;;;;;5030215;28;20167;-83
2022/09/22 04:45:52;;;;;;;7.80;3.47;;;9.20;99.90;;;;;;5042574;28;20211;-82
2022/09/22 04:48:18;;;;;;;8.80;3.97;;;9.20;99.90;;;;;;5027999;28;20212;-83
2022/09/22 04:50:43;;;;;;;5.80;3.67;;;9.30;99.90;;;;;;5048256;28;20235;-83
2022/09/22 04:53:09;;;;;;;6.70;3.67;;;9.20;99.90;;;;;;5031754;28;20220;-83
2022/09/22 04:55:35;;;;;;;5.23;3.80;;;9.30;99.90;;;;;;5041726;28;20191;-83
2022/09/22 04:58:00;;;;;;;9.37;4.40;;;9.30;99.90;;;;;;5042581;28;20689;-83
2022/09/22 05:00:28;;;;;;;5.60;3.53;;;9.30;99.90;;;;;;5027862;28;20276;-83
2022/09/22 05:02:54;;;;;;;5.03;3.57;;;9.30;99.90;;;;;;5042563;28;20219;-83
2022/09/22 05:05:22;;;;;;;7.07;3.97;;;9.30;99.90;;;;;;5020904;28;20193;-83
2022/09/22 05:07:51;;;;;;;5.30;3.97;;;9.30;99.90;;;;;;5046876;28;20249;-83
2022/09/22 05:10:17;;;;;;;7.00;3.70;;;9.30;99.90;;;;;;5026379;28;20196;-83
2022/09/22 05:12:43;;;;;;;8.67;4.50;;;9.30;99.90;;;;;;5041583;28;20265;-81
2022/09/22 05:15:12;;;;;;;6.63;3.53;;;9.30;99.90;;;;;;5035365;28;20203;-83
2022/09/22 05:17:47;;;;;;;5.00;3.93;;;9.40;99.90;;;;;;5026039;28;20291;-82
2022/09/22 05:20:13;;;;;;;6.17;4.17;;;9.40;99.90;;;;;;5050097;28;20211;-83
2022/09/22 05:22:39;;;;;;;4.93;3.80;;;9.40;99.90;;;;;;5032261;28;20260;-83
2022/09/22 05:25:07;;;;;;;5.97;4.10;;;9.40;99.90;;;;;;5050330;28;20402;-83
2022/09/22 05:27:32;;;;;;;6.07;3.30;;;9.40;99.90;;;;;;5024988;28;20215;-82
2022/09/22 05:29:58;;;;;;;6.37;3.67;;;9.50;99.90;;;;;;5029317;28;20277;-83
2022/09/22 05:32:23;;;;;;;7.63;4.10;;;9.50;99.90;;;;;;5035839;28;20202;-82
2022/09/22 05:34:49;;;;;;;5.47;3.97;;;9.60;99.90;;;;;;5032511;28;20176;-84
2022/09/22 05:37:14;;;;;;;5.87;3.93;;;9.60;99.90;;;;;;5031775;28;20270;-84
2022/09/22 05:39:40;;;;;;;7.20;4.33;;;9.60;99.90;;;;;;5052392;28;20286;-83
2022/09/22 05:42:06;;;;;;;9.43;4.00;;;9.70;99.90;;;;;;5031878;28;20291;-82
2022/09/22 05:44:31;;;;;;;7.07;3.67;;;9.70;99.90;;;;;;5050577;28;20226;-82
2022/09/22 05:46:57;;;;;;;7.30;3.77;;;9.80;99.90;;;;;;5035223;28;20250;-82
2022/09/22 05:49:22;;;;;;;8.20;4.40;;;10.00;99.90;;;;;;5054096;28;20177;-82
2022/09/22 05:51:51;;;;;;;9.63;4.97;;;11.60;99.90;;;;;;5032305;28;20218;-83
2022/09/22 05:54:16;;;;;;;5.32;3.45;;;13.80;99.90;;;;;;5037106;28;20257;-83
2022/09/22 05:56:42;;;;;;;8.10;3.45;;;15.50;99.90;;;;;;5045699;28;20200;-81
2022/09/22 05:59:07;;;;;;;7.63;3.55;;;16.80;99.90;;;;;;5052422;28;20238;-83
2022/09/22 06:01:33;;;;;;;5.82;3.58;;;17.70;99.90;;;;;;5030802;28;20263;-83
2022/09/22 06:03:58;;;;;;;7.35;3.85;;;18.60;99.90;;;;;;5028823;28;20219;-83
2022/09/22 06:06:24;;;;;;;5.93;3.67;;;19.10;99.90;;;;;;5052160;28;20213;-83
2022/09/22 06:08:49;;;;;;;7.75;3.65;;;19.60;99.90;;;;;;5034201;28;20225;-83
2022/09/22 06:11:15;;;;;;;11.65;4.05;;;19.90;99.90;;;;;;5050957;28;20214;-82
2022/09/22 06:13:41;;;;;;;9.15;4.07;;;20.20;99.90;;;;;;5052037;28;20201;-80
2022/09/22 06:16:06;;;;;;;6.95;3.78;;;20.40;99.90;;;;;;5032509;28;20208;-82
2022/09/22 06:18:32;;;;;;;8.07;4.15;;;20.70;99.90;;;;;;5050569;28;20207;-81
2022/09/22 06:20:58;;;;;;;5.40;3.75;;;21.00;99.90;;;;;;5034103;28;20955;-84
2022/09/22 06:23:25;;;;;;;5.97;3.58;;;21.20;99.90;;;;;;5057615;28;20207;-81
2022/09/22 06:25:56;;;;;;;4.47;3.15;;;21.40;99.90;;;;;;5035145;28;20171;-81
2022/09/22 06:28:22;;;;;;;6.82;3.60;;;21.50;99.90;;;;;;5033584;28;20203;-81
2022/09/22 06:30:48;;;;;;;6.47;4.25;;;21.50;99.90;;;;;;5036447;28;20323;-81
2022/09/22 06:33:14;;;;;;;5.72;3.75;;;21.60;99.90;;;;;;5053494;28;20206;-81
2022/09/22 06:35:40;;;;;;;6.30;4.00;;;21.50;99.90;;;;;;5054909;28;20203;-81
2022/09/22 06:38:08;;;;;;;6.75;3.80;;;21.80;99.90;;;;;;5033898;28;20208;-82
2022/09/22 06:40:35;;;;;;;5.65;3.83;;;21.80;99.90;;;;;;5034691;28;20211;-81
2022/09/22 06:43:06;;;;;;;9.15;3.95;;;22.10;99.90;;;;;;5047976;28;20643;-81
2022/09/22 06:45:32;;;;;;;6.35;3.60;;;22.10;99.90;;;;;;5044174;28;20227;-81
2022/09/22 06:47:59;;;;;;;8.98;4.50;;;22.70;99.90;;;;;;5035287;28;20214;-81
2022/09/22 06:50:31;;;;;;;5.85;3.97;;;22.80;99.90;;;;;;5035953;28;20218;-83
2022/09/22 06:53:06;;;;;;;5.45;4.30;;;22.50;99.90;;;;;;5050706;28;20176;-81
2022/09/22 06:55:32;;;;;;;5.30;3.70;;;23.10;99.90;;;;;;5025673;28;20171;-81
2022/09/22 06:57:58;;;;;;;5.68;3.83;;;23.10;99.90;;;;;;5049007;28;20255;-81
2022/09/22 07:00:31;;;;;;;6.30;3.88;;;23.00;99.90;;;;;;5049993;28;20380;-80
2022/09/22 07:03:19;;;;;;;6.47;4.28;;;23.00;99.90;;;;;;5044274;28;20541;-81
2022/09/22 07:06:17;;;;;;;6.18;4.10;;;23.20;99.90;;;;;;5036950;28;20214;-80
2022/09/22 07:08:48;;;;;;;7.13;4.80;;;23.50;99.90;;;;;;5050871;28;20206;-81
2022/09/22 07:11:22;;;;;;;6.90;4.07;;;23.30;99.90;;;;;;5061244;28;20223;-82
2022/09/22 07:13:52;;;;;;;7.90;4.32;;;23.80;99.90;;;;;;5043685;28;20546;-82
2022/09/22 07:16:24;;;;;;;8.00;5.25;;;24.10;99.90;;;;;;5031912;28;20171;-81
2022/09/22 07:18:57;;;;;;;6.47;4.97;;;24.20;99.90;;;;;;5057421;28;20283;-82
2022/09/22 07:21:46;;;;;;;7.72;4.47;;;24.30;99.90;;;;;;5040276;28;20205;-81
2022/09/22 07:24:12;;;;;;;8.52;5.50;;;24.20;99.90;;;;;;5032444;28;20207;-81
2022/09/22 07:26:39;;;;;;;10.90;7.35;;;24.10;99.90;;;;;;5032441;28;20698;-83
2022/09/22 07:29:10;;;;;;;6.25;4.57;;;24.20;99.90;;;;;;5033051;28;20607;-82
2022/09/22 07:31:36;;;;;;;6.30;4.43;;;24.30;99.90;;;;;;5043448;28;20694;-83
2022/09/22 07:34:02;;;;;;;10.57;4.35;;;24.70;99.90;;;;;;5059329;28;20200;-81
2022/09/22 07:36:30;;;;;;;5.40;4.30;;;24.30;99.90;;;;;;5055208;28;20195;-81
2022/09/22 07:39:02;;;;;;;7.18;4.13;;;23.70;99.90;;;;;;5045213;28;20204;-81
2022/09/22 07:41:29;;;;;;;4.63;3.50;;;24.10;99.90;;;;;;5049902;28;20214;-81
2022/09/22 07:45:11;;;;;;;5.18;4.13;;;24.20;99.90;;;;;;5046797;28;20639;-82
2022/09/22 07:46:43;;;;;;;5.85;3.70;;;24.50;99.90;;;;;;5044308;28;20546;-81
2022/09/22 07:49:09;;;;;;;5.07;4.05;;;24.40;99.90;;;;;;5051465;28;20240;-79
2022/09/22 07:51:36;;;;;;;6.95;3.85;;;24.50;99.90;;;;;;5032081;28;20246;-81
2022/09/22 07:54:06;;;;;;;7.38;3.92;;;24.30;99.90;;;;;;5045420;28;20677;-81
2022/09/22 07:56:32;;;;;;;6.03;3.75;;;24.20;99.90;;;;;;5045948;28;20199;-80
2022/09/22 07:59:03;;;;;;;5.50;2.95;;;24.10;99.90;;;;;;5051842;28;20273;-81
2022/09/22 08:01:32;;;;;;;4.47;2.88;;;24.10;99.90;;;;;;5049072;28;20572;-81
2022/09/22 08:03:57;;;;;;;3.65;2.83;;;24.50;99.90;;;;;;5008424;28;20239;-80
2022/09/22 08:06:23;;;;;;;5.55;3.55;;;24.40;99.90;;;;;;5051670;28;20344;-80
2022/09/22 08:08:54;;;;;;;3.25;2.72;;;24.20;99.90;;;;;;5047060;28;20584;-81
2022/09/22 08:11:24;;;;;;;4.18;2.20;;;24.00;99.90;;;;;;5028361;28;20215;-81
2022/09/22 08:13:54;;;;;;;5.38;2.28;;;23.00;99.90;;;;;;5040969;28;20815;-80
2022/09/22 08:16:21;;;;;;;3.90;1.60;;;22.80;99.90;;;;;;5044663;28;20164;-81
2022/09/22 08:18:53;;;;;;;2.42;1.98;;;23.20;99.90;;;;;;5044372;28;20204;-81
2022/09/22 08:21:19;;;;;;;2.17;1.40;;;22.30;99.90;;;;;;5035542;28;20211;-81
2022/09/22 08:23:45;;;;;;;2.78;1.48;;;21.60;99.90;;;;;;5036361;28;20275;-81
2022/09/22 08:26:10;;;;;;;4.57;2.13;;;22.40;99.90;;;;;;5035583;28;20880;-80
2022/09/22 08:28:37;;;;;;;3.17;1.85;;;22.50;99.90;;;;;;5030954;28;20234;-80
2022/09/22 08:31:03;;;;;;;5.82;2.25;;;23.30;99.90;;;;;;5049301;28;20212;-81
2022/09/22 08:33:30;;;;;;;4.10;1.95;;;23.70;99.90;;;;;;5055602;28;20203;-80
2022/09/22 08:36:02;;;;;;;3.15;1.63;;;24.30;99.90;;;;;;5032428;28;20219;-81
2022/09/22 08:38:28;;;;;;;3.80;1.77;;;24.60;99.90;;;;;;5027774;28;20203;-81
2022/09/22 08:41:19;;;;;;;2.00;1.40;;;24.50;99.90;;;;;;5031404;28;20189;-79
2022/09/22 08:43:51;;;;;;;2.50;1.50;;;24.60;99.10;;;;;;5046763;28;20651;-81
2022/09/22 08:46:17;;;;;;;2.05;1.45;;;24.10;99.80;;;;;;5037676;28;20212;-81
2022/09/22 08:51:51;;;;;;;3.83;2.13;;;21.40;99.90;;;;;;5051569;28;20796;-81
2022/09/22 08:54:17;;;;;;;2.85;1.35;;;21.30;99.90;;;;;;5051575;28;20211;-80
2022/09/22 08:56:57;;;;;;;3.28;1.30;;;21.00;99.90;;;;;;5048300;28;20281;-80
2022/09/22 08:59:31;;;;;;;1.42;1.00;;;21.30;99.90;;;;;;5037005;28;20215;-80
2022/09/22 09:02:21;;;;;;;2.58;1.30;;;21.50;99.90;;;;;;5042529;28;20183;-81
2022/09/22 09:05:09;;;;;;;2.85;1.30;;;21.20;99.90;;;;;;5053084;28;20238;-81
2022/09/22 09:07:47;;;;;;;2.78;1.40;;;20.90;99.90;;;;;;5050904;28;20199;-82
2022/09/22 09:10:38;;;;;;;2.10;0.70;;;21.30;99.90;;;;;;5033414;28;20684;-81
2022/09/22 09:13:15;;;;;;;1.05;0.80;;;21.10;99.90;;;;;;5043923;28;20206;-82
2022/09/22 09:16:12;;;;;;;1.95;1.25;;;21.30;99.90;;;;;;5052805;28;20764;-83
2022/09/22 09:18:43;;;;;;;1.52;1.10;;;21.00;99.90;;;;;;5050979;28;20211;-82
2022/09/22 09:21:13;;;;;;;1.77;0.82;;;20.40;99.90;;;;;;5056134;28;20666;-83
2022/09/22 09:23:51;;;;;;;2.60;0.70;;;20.40;99.90;;;;;;5041360;28;20584;-82
2022/09/22 09:26:19;;;;;;;1.65;1.00;;;20.10;99.90;;;;;;5051774;28;20211;-82
2022/09/22 09:28:59;;;;;;;2.70;1.10;;;20.60;99.90;;;;;;5051016;28;20281;-80
2022/09/22 09:31:47;;;;;;;2.05;1.20;;;21.00;99.90;;;;;;5030131;28;20225;-82
2022/09/22 09:34:18;;;;;;;1.08;0.82;;;21.30;99.90;;;;;;5051065;28;20203;-82
2022/09/22 09:36:50;;;;;;;2.30;1.20;;;21.70;99.90;;;;;;5031533;28;20586;-82
2022/09/22 09:39:42;;;;;;;2.03;1.10;;;21.50;99.90;;;;;;5030080;28;20643;-80
2022/09/22 09:42:17;;;;;;;2.15;1.13;;;21.60;99.90;;;;;;5031405;28;20207;-82
2022/09/22 09:44:43;;;;;;;3.80;1.23;;;21.50;99.90;;;;;;5026067;28;20210;-81
2022/09/22 09:47:37;;;;;;;2.10;1.00;;;21.20;99.90;;;;;;5027864;28;20208;-82
2022/09/22 09:50:03;;;;;;;2.17;0.85;;;21.70;99.90;;;;;;5029995;28;20227;-82
2022/09/22 09:52:29;;;;;;;1.17;1.08;;;21.30;99.90;;;;;;5050548;28;20658;-82
2022/09/22 09:54:55;;;;;;;3.50;1.00;;;21.20;99.90;;;;;;5030238;28;20637;-82
2022/09/22 09:57:22;;;;;;;2.47;0.98;;;21.30;99.90;;;;;;5049802;28;20230;-82
2022/09/22 10:00:31;;;;;;;5.15;1.50;;;20.40;99.90;;;;;;5030573;28;20576;-82
2022/09/22 10:03:23;;;;;;;1.58;1.27;;;20.10;99.90;;;;;;5029466;28;20276;-82
2022/09/22 10:06:08;;;;;;;3.17;2.40;;;19.60;99.90;;;;;;5034235;28;20697;-82
2022/09/22 10:08:43;;;;;;;3.22;1.13;;;19.50;99.90;;;;;;5039541;28;20693;-82
2022/09/22 10:11:11;;;;;;;1.38;1.25;;;19.10;99.90;;;;;;5044224;28;20674;-82
2022/09/22 10:13:39;;;;;;;2.10;0.90;;;18.70;99.90;;;;;;5035711;28;20182;-82
2022/09/22 10:16:29;;;;;;;2.47;0.80;;;18.90;99.90;;;;;;5052897;28;20212;-81
2022/09/22 10:19:19;;;;;;;3.50;1.27;;;19.40;99.90;;;;;;5047587;28;20207;-83
2022/09/22 10:21:45;;;;;;;3.28;1.23;;;19.50;99.90;;;;;;5046731;28;20200;-82
2022/09/22 10:24:31;;;;;;;3.53;1.00;;;19.50;99.90;;;;;;5033921;28;20214;-82
2022/09/22 10:26:57;;;;;;;2.40;1.10;;;19.70;99.90;;;;;;5021828;28;20295;-83
2022/09/22 10:29:23;;;;;;;3.85;0.90;;;19.50;99.90;;;;;;5029345;28;20226;-83
2022/09/22 10:32:01;;;;;;;2.60;1.10;;;19.70;99.90;;;;;;5029676;28;20195;-83
2022/09/22 10:34:32;;;;;;;1.52;0.90;;;20.20;99.90;;;;;;5029745;28;20167;-83
2022/09/22 10:36:59;;;;;;;2.58;1.10;;;20.60;99.90;;;;;;5048882;28;20207;-83
2022/09/22 10:39:42;;;;;;;1.20;0.73;;;20.90;99.90;;;;;;5026256;28;20222;-83
2022/09/22 10:42:22;;;;;;;2.90;1.13;;;20.50;99.90;;;;;;5026153;28;20219;-83
2022/09/22 10:44:50;;;;;;;2.13;0.93;;;19.90;99.90;;;;;;5044045;28;20571;-82
2022/09/22 10:47:31;;;;;;;2.15;0.95;;;19.80;99.90;;;;;;5068615;28;20253;-84
2022/09/22 10:50:18;;;;;;;1.45;0.50;;;19.90;99.90;;;;;;5045906;28;20191;-83
2022/09/22 10:53:04;;;;;;;3.75;1.00;;;19.60;99.90;;;;;;5052228;28;20176;-83
2022/09/22 10:55:47;;;;;;;3.55;1.40;;;19.50;99.90;;;;;;5048687;28;20226;-84
2022/09/22 10:58:24;;;;;;;3.70;0.98;;;19.40;99.90;;;;;;5056838;28;20233;-85
2022/09/22 11:01:43;;;;;;;1.42;0.73;;;19.30;99.90;;;;;;5057512;28;20210;-84
2022/09/22 11:04:25;;;;;;;1.23;0.60;;;18.90;99.90;;;;;;5060427;28;20199;-83
2022/09/22 11:12:45;;;;;;;2.25;1.23;;;19.40;99.90;;;;;;5040065;28;20223;-83
2022/09/22 11:15:46;;;;;;;4.05;2.90;;;19.40;99.90;;;;;;5033976;28;20211;-83
2022/09/22 11:18:27;;;;;;;3.67;1.67;;;19.10;99.90;;;;;;5033787;28;20286;-84
2022/09/22 11:21:05;;;;;;;2.22;0.90;;;18.80;99.90;;;;;;5025562;28;20275;-82
2022/09/22 11:24:04;;;;;;;4.63;1.20;;;18.00;99.90;;;;;;5050950;28;20511;-84
2022/09/22 11:26:46;;;;;;;1.73;1.25;;;17.60;99.90;;;;;;5032024;28;20199;-82
2022/09/22 11:29:31;;;;;;;1.65;1.20;;;17.50;99.90;;;;;;5049493;28;20227;-83
2022/09/22 11:32:25;;;;;;;1.45;0.80;;;17.40;99.90;;;;;;5047435;28;20187;-83
2022/09/22 11:35:12;;;;;;;1.77;0.98;;;17.30;99.90;;;;;;5048891;28;20179;-83
2022/09/22 11:37:53;;;;;;;1.95;0.70;;;17.00;99.90;;;;;;5051790;28;20192;-81
2022/09/22 11:40:28;;;;;;;1.50;0.80;;;17.00;99.90;;;;;;5045852;28;20195;-84
2022/09/22 11:43:22;;;;;;;1.42;0.60;;;16.70;99.90;;;;;;5037466;28;20195;-84
2022/09/22 11:46:14;;;;;;;1.25;0.77;;;16.70;99.90;;;;;;5039360;28;20208;-84
2022/09/22 11:48:55;;;;;;;0.93;0.80;;;16.70;99.90;;;;;;5033397;28;20214;-84
2022/09/22 11:52:10;;;;;;;1.08;0.60;;;16.70;99.90;;;;;;5044829;28;20211;-84
2022/09/22 11:54:50;;;;;;;1.38;0.68;;;16.80;99.90;;;;;;5048100;28;20203;-84
2022/09/22 11:57:23;;;;;;;1.67;0.82;;;16.90;99.90;;;;;;5054330;28;20204;-84
2022/09/22 12:00:19;;;;;;;2.10;0.80;;;16.90;99.90;;;;;;5039727;28;20200;-83
2022/09/22 12:02:53;;;;;;;1.70;0.60;;;16.90;99.90;;;;;;5035734;28;20658;-84
2022/09/22 12:05:29;;;;;;;1.33;0.77;;;17.00;99.90;;;;;;5043907;28;20210;-84
2022/09/22 12:08:11;;;;;;;1.65;1.02;;;16.80;99.90;;;;;;5056557;28;20194;-83
2022/09/22 12:10:40;;;;;;;4.13;1.00;;;16.70;99.90;;;;;;5059034;28;20337;-84
2022/09/22 12:13:15;;;;;;;1.73;0.50;;;16.70;99.90;;;;;;5044909;28;20673;-84
2022/09/22 12:16:05;;;;;;;0.95;0.65;;;16.60;99.90;;;;;;5044235;28;20203;-84
2022/09/22 12:18:55;;;;;;;1.90;0.68;;;16.60;99.90;;;;;;5029579;28;20287;-84
2022/09/22 12:21:30;;;;;;;2.05;0.60;;;16.70;99.90;;;;;;5055457;28;20203;-84
2022/09/22 12:24:01;;;;;;;3.53;1.00;;;16.90;99.90;;;;;;5056260;28;20207;-83
2022/09/22 12:26:36;;;;;;;2.40;1.20;;;16.90;99.90;;;;;;5036689;28;20637;-83
2022/09/22 12:29:09;;;;;;;2.03;0.82;;;17.00;99.90;;;;;;5032024;28;20211;-84
2022/09/22 12:31:40;;;;;;;1.23;0.60;;;17.40;99.90;;;;;;5054660;28;20200;-83
2022/09/22 12:34:31;;;;;;;1.77;1.35;;;17.20;99.90;;;;;;5055730;28;20249;-85
2022/09/22 12:37:07;;;;;;;2.45;1.15;;;17.10;99.90;;;;;;5051310;28;20239;-83
2022/09/22 12:39:43;;;;;;;1.73;0.82;;;17.20;99.90;;;;;;5055231;28;20207;-83
2022/09/22 12:42:20;;;;;;;1.88;0.90;;;17.10;99.90;;;;;;5051092;28;20210;-84
2022/09/22 12:44:50;;;;;;;2.58;0.95;;;17.10;99.90;;;;;;5037291;28;20203;-83
2022/09/22 12:47:20;;;;;;;1.13;0.85;;;16.90;99.90;;;;;;5050742;28;20227;-82
2022/09/22 12:49:57;;;;;;;3.60;1.02;;;16.80;99.90;;;;;;5047664;28;20175;-84
2022/09/22 12:52:39;;;;;;;1.85;1.00;;;16.70;99.90;;;;;;5050926;28;20175;-84
2022/09/22 12:55:26;;;;;;;2.17;0.75;;;16.60;99.90;;;;;;5030555;28;20212;-84
2022/09/22 12:57:53;;;;;;;2.05;0.98;;;16.50;99.90;;;;;;5041451;28;20546;-84
2022/09/22 13:00:22;;;;;;;1.15;0.90;;;16.60;99.90;;;;;;5055162;28;20225;-84
2022/09/22 13:02:49;;;;;;;0.50;0.50;;;16.60;99.90;;;;;;5031817;28;20631;-83
2022/09/22 13:05:23;;;;;;;2.63;0.68;;;16.60;99.90;;;;;;5036937;28;20200;-83
2022/09/22 13:07:50;;;;;;;1.27;0.68;;;16.70;99.90;;;;;;5054589;28;20309;-84
2022/09/22 13:10:21;;;;;;;1.85;0.98;;;16.60;99.90;;;;;;5032517;28;20284;-83
2022/09/22 13:13:02;;;;;;;0.50;0.50;;;16.60;99.90;;;;;;5045132;28;20204;-85
2022/09/22 13:15:32;;;;;;;1.33;0.63;;;16.80;99.90;;;;;;5035060;28;20222;-84
2022/09/22 13:17:58;;;;;;;2.47;0.50;;;17.00;99.90;;;;;;5053240;28;20604;-83
2022/09/22 13:20:32;;;;;;;1.83;0.80;;;17.10;99.90;;;;;;5029053;28;20212;-84
2022/09/22 13:23:25;;;;;;;0.63;0.50;;;17.30;99.90;;;;;;5020262;28;20181;-83
2022/09/22 13:25:51;;;;;;;0.90;0.60;;;17.50;99.90;;;;;;5028482;28;20692;-83